createdAt,value
2023-03-11T00:04:40.926Z,96519.81
2023-03-11T00:09:45.212Z,96517.84
2023-03-11T00:14:48.082Z,96528.50
2023-03-11T00:19:51.070Z,96539.63
2023-03-11T00:24:55.341Z,96525.97
2023-03-11T00:29:58.214Z,96555.31
2023-03-11T00:35:01.171Z,96564.25
2023-03-11T00:40:08.565Z,96580.84
2023-03-11T00:45:12.671Z,96596.94
2023-03-11T00:50:18.984Z,96592.44
2023-03-11T00:55:25.319Z,96623.00
2023-03-11T01:00:30.474Z,96615.38
2023-03-11T01:05:35.394Z,96638.63
2023-03-11T01:10:39.830Z,96644.81
2023-03-11T01:15:42.799Z,96652.53
2023-03-11T01:20:45.694Z,96677.06
2023-03-11T01:25:50.107Z,96692.09
2023-03-11T01:30:53.049Z,96708.75
2023-03-11T01:35:57.248Z,96719.19
2023-03-11T01:41:05.822Z,96721.78
2023-03-11T01:46:15.677Z,96740.41
2023-03-11T01:51:26.589Z,96754.91
2023-03-11T01:56:31.911Z,96758.88
2023-03-11T02:01:38.095Z,96774.19
2023-03-11T02:06:41.738Z,96795.06
2023-03-11T02:11:46.298Z,96777.81
2023-03-11T02:16:50.071Z,96805.03
2023-03-11T02:21:53.165Z,96818.59
2023-03-11T02:27:01.529Z,96821.81
2023-03-11T02:32:08.898Z,96843.78
2023-03-11T02:37:17.198Z,96848.84
2023-03-11T02:42:32.112Z,96852.03
2023-03-11T02:47:37.513Z,96876.03
2023-03-11T02:52:40.789Z,96896.50
2023-03-11T02:57:45.338Z,96907.84
2023-03-11T03:02:51.696Z,96920.34
2023-03-11T03:07:54.796Z,96946.94
2023-03-11T03:12:59.041Z,96963.00
2023-03-11T03:18:02.075Z,96956.84
2023-03-11T03:23:05.494Z,97005.66
2023-03-11T03:28:11.618Z,97017.72
2023-03-11T03:33:17.306Z,97035.97
2023-03-11T03:38:21.116Z,97030.19
2023-03-11T03:43:27.532Z,97059.91
2023-03-11T03:48:30.830Z,97071.78
2023-03-11T03:53:36.162Z,97104.88
2023-03-11T03:58:40.855Z,97130.06
2023-03-11T04:03:45.165Z,97133.63
2023-03-11T04:08:51.882Z,97135.13
2023-03-11T04:13:57.236Z,97165.28
2023-03-11T04:19:00.692Z,97166.31
2023-03-11T04:24:04.921Z,97192.06
2023-03-11T04:29:12.761Z,97196.63
2023-03-11T04:34:19.435Z,97214.91
2023-03-11T04:39:22.539Z,97240.19
2023-03-11T04:44:26.868Z,97246.91
2023-03-11T04:49:29.832Z,97246.75
2023-03-11T04:54:32.913Z,97270.66
2023-03-11T04:59:38.288Z,97278.31
2023-03-11T05:04:41.229Z,97292.97
2023-03-11T05:09:44.794Z,97300.44
2023-03-11T05:14:50.212Z,97308.16
2023-03-11T05:19:53.616Z,97332.59
2023-03-11T05:25:04.220Z,97336.28
2023-03-11T05:30:10.244Z,97355.91
2023-03-11T05:35:15.757Z,97367.00
2023-03-11T05:40:19.445Z,97363.94
2023-03-11T05:45:25.814Z,97402.91
2023-03-11T05:50:30.759Z,97405.53
2023-03-11T05:55:33.885Z,97415.91
2023-03-11T06:00:38.655Z,97447.19
2023-03-11T06:05:46.211Z,97429.41
2023-03-11T06:10:49.165Z,97451.00
2023-03-11T06:15:54.804Z,97460.63
2023-03-11T06:21:00.525Z,97484.88
2023-03-11T06:26:05.553Z,97490.88
2023-03-11T06:31:17.324Z,97510.66
2023-03-11T06:36:21.574Z,97521.47
2023-03-11T06:41:27.139Z,97542.06
2023-03-11T06:46:32.315Z,97555.41
2023-03-11T06:51:36.239Z,97557.59
2023-03-11T06:56:40.274Z,97576.75
2023-03-11T07:01:46.430Z,97586.97
2023-03-11T07:06:50.161Z,97602.41
2023-03-11T07:11:57.593Z,97608.38
2023-03-11T07:17:07.934Z,97637.59
2023-03-11T07:22:17.840Z,97642.56
2023-03-11T07:27:21.125Z,97665.06
2023-03-11T07:32:25.480Z,97671.72
2023-03-11T07:37:28.384Z,97682.56
2023-03-11T07:42:31.329Z,97694.06
2023-03-11T07:47:36.022Z,97704.63
2023-03-11T07:52:39.050Z,97705.34
2023-03-11T07:57:42.711Z,97727.22
2023-03-11T08:02:47.035Z,97740.19
2023-03-11T08:07:50.597Z,97749.00
2023-03-11T08:12:53.507Z,97748.28
2023-03-11T08:17:58.773Z,97763.00
2023-03-11T08:23:04.154Z,97770.94
2023-03-11T08:28:09.097Z,97784.97
2023-03-11T08:33:13.387Z,97799.69
2023-03-11T08:38:16.476Z,97811.59
2023-03-11T08:43:20.437Z,97820.66
2023-03-11T08:48:25.531Z,97803.16
2023-03-11T08:53:28.412Z,97835.78
2023-03-11T08:58:31.291Z,97839.69
2023-03-11T09:03:36.890Z,97864.97
2023-03-11T09:08:39.749Z,97876.63
2023-03-11T09:13:43.120Z,97882.13
2023-03-11T09:18:47.750Z,97882.13
2023-03-11T09:23:50.690Z,97886.41
2023-03-11T09:28:53.733Z,97902.88
2023-03-11T09:33:58.136Z,97917.72
2023-03-11T09:39:02.062Z,97931.94
2023-03-11T09:44:13.538Z,97929.56
2023-03-11T09:49:25.926Z,97937.19
2023-03-11T09:54:30.770Z,97951.84
2023-03-11T09:59:34.560Z,97955.38
2023-03-11T10:04:44.860Z,97964.66
2023-03-11T10:09:51.979Z,97964.50
2023-03-11T10:15:06.122Z,97963.69
2023-03-11T10:20:15.376Z,97984.50
2023-03-11T10:25:22.340Z,97985.50
2023-03-11T10:30:30.764Z,97983.53
2023-03-11T10:35:40.606Z,97998.06
2023-03-11T10:40:45.312Z,98004.00
2023-03-11T10:45:51.193Z,98005.25
2023-03-11T10:51:02.999Z,98033.75
2023-03-11T10:56:06.483Z,98024.13
2023-03-11T11:01:16.828Z,98030.47
2023-03-11T11:06:27.488Z,98038.75
2023-03-11T11:11:30.375Z,98040.69
2023-03-11T11:16:35.265Z,98052.19
2023-03-11T11:21:43.278Z,98043.91
2023-03-11T11:27:04.485Z,98056.84
2023-03-11T11:32:19.969Z,98056.19
2023-03-11T11:37:26.898Z,98060.50
2023-03-11T11:42:32.403Z,98065.28
2023-03-11T11:47:37.855Z,98072.25
2023-03-11T11:52:48.612Z,98071.47
2023-03-11T11:57:52.382Z,98065.63
2023-03-11T12:03:10.872Z,98078.53
2023-03-11T12:08:22.072Z,98068.91
2023-03-11T12:13:50.372Z,98072.88
2023-03-11T12:18:57.612Z,98071.97
2023-03-11T12:24:18.376Z,98072.00
2023-03-11T12:29:26.870Z,98077.91
2023-03-11T12:34:35.017Z,98083.03
2023-03-11T12:39:39.251Z,98087.59
2023-03-11T12:44:42.740Z,98089.53
2023-03-11T12:49:46.967Z,98091.06
2023-03-11T12:55:38.451Z,98101.31
2023-03-11T13:01:06.708Z,98099.88
2023-03-11T13:06:25.329Z,98102.84
2023-03-11T13:11:39.685Z,98109.16
2023-03-11T13:16:43.143Z,98122.94
2023-03-11T13:21:46.063Z,98131.00
2023-03-11T13:26:56.354Z,98142.13
2023-03-11T13:32:14.330Z,98148.16
2023-03-11T13:37:27.261Z,98141.59
2023-03-11T13:42:36.788Z,98154.53
2023-03-11T13:47:43.056Z,98148.19
2023-03-11T13:52:50.102Z,98161.75
2023-03-11T13:57:56.306Z,98164.81
2023-03-11T14:03:02.846Z,98184.16
2023-03-11T14:08:22.272Z,98187.56
2023-03-11T14:13:30.248Z,98192.06
2023-03-11T14:18:41.627Z,98194.72
2023-03-11T14:23:46.470Z,98196.00
2023-03-11T14:28:53.354Z,98203.00
2023-03-11T14:33:58.570Z,98211.00
2023-03-11T14:39:01.580Z,98219.91
2023-03-11T14:44:06.783Z,98224.34
2023-03-11T14:49:16.981Z,98229.81
2023-03-11T14:54:24.454Z,98234.50
2023-03-11T14:59:32.502Z,98247.00
2023-03-11T15:04:38.138Z,98244.94
2023-03-11T15:09:42.794Z,98255.22
2023-03-11T15:14:52.646Z,98256.91
2023-03-11T15:19:55.914Z,98257.44
2023-03-11T15:25:00.865Z,98268.34
2023-03-11T15:30:20.129Z,98279.84
2023-03-11T15:35:24.320Z,98288.81
2023-03-11T15:40:44.405Z,98295.16
2023-03-11T15:45:49.974Z,98295.47
2023-03-11T15:50:55.269Z,98298.59
2023-03-11T15:56:07.034Z,98311.56
2023-03-11T16:01:12.265Z,98319.41
2023-03-11T16:06:15.213Z,98321.25
2023-03-11T16:11:18.810Z,98326.88
2023-03-11T16:16:23.295Z,98333.41
2023-03-11T16:21:34.478Z,98342.16
2023-03-11T16:26:37.462Z,98344.78
2023-03-11T16:31:43.195Z,98354.38
2023-03-11T16:36:46.128Z,98360.28
2023-03-11T16:41:49.011Z,98357.84
2023-03-11T16:46:53.370Z,98364.06
2023-03-11T16:51:56.344Z,98370.94
2023-03-11T16:56:59.270Z,98382.34
2023-03-11T17:02:03.926Z,98395.94
2023-03-11T17:07:08.819Z,98403.34
2023-03-11T17:12:13.487Z,98408.56
2023-03-11T17:17:17.761Z,98418.56
2023-03-11T17:22:20.717Z,98434.69
2023-03-11T17:27:23.806Z,98428.16
2023-03-11T17:32:28.162Z,98437.34
2023-03-11T17:37:31.146Z,98449.97
2023-03-11T17:42:34.120Z,98449.03
2023-03-11T17:47:38.387Z,98455.31
2023-03-11T17:52:41.298Z,98457.91
2023-03-11T17:57:45.802Z,98449.03
2023-03-11T18:02:51.280Z,98461.84
2023-03-11T18:07:54.170Z,98468.78
2023-03-11T18:12:57.112Z,98466.16
2023-03-11T18:18:01.376Z,98467.94
2023-03-11T18:23:04.360Z,98479.59
2023-03-11T18:28:07.240Z,98476.53
2023-03-11T18:33:11.490Z,98473.97
2023-03-11T18:38:14.391Z,98478.31
2023-03-11T18:43:17.242Z,98480.09
2023-03-11T18:48:21.546Z,98486.03
2023-03-11T18:53:25.359Z,98489.59
2023-03-11T18:58:28.332Z,98491.34
2023-03-11T19:03:32.627Z,98499.09
2023-03-11T19:08:35.656Z,98499.44
2023-03-11T19:13:46.711Z,98511.69
2023-03-11T19:18:53.776Z,98509.72
2023-03-11T19:23:59.961Z,98516.16
2023-03-11T19:29:02.863Z,98518.41
2023-03-11T19:34:07.230Z,98523.22
2023-03-11T19:39:10.140Z,98526.94
2023-03-11T19:44:13.038Z,98534.63
2023-03-11T19:49:17.430Z,98530.31
2023-03-11T19:54:20.497Z,98535.25
2023-03-11T19:59:23.419Z,98539.03
2023-03-11T20:04:27.873Z,98538.47
2023-03-11T20:09:32.632Z,98539.59
2023-03-11T20:14:35.579Z,98538.47
2023-03-11T20:19:39.981Z,98538.41
2023-03-11T20:24:42.849Z,98538.88
2023-03-11T20:29:45.883Z,98540.69
2023-03-11T20:34:50.163Z,98543.25
2023-03-11T20:39:54.194Z,98538.81
2023-03-11T20:44:57.142Z,98550.81
2023-03-11T20:50:01.511Z,98536.19
2023-03-11T20:55:07.477Z,98549.84
2023-03-11T21:00:14.557Z,98544.03
2023-03-11T21:05:19.449Z,98541.84
2023-03-11T21:10:22.680Z,98545.41
2023-03-11T21:15:25.809Z,98535.38
2023-03-11T21:20:30.189Z,98540.91
2023-03-11T21:25:33.149Z,98540.81
2023-03-11T21:30:36.083Z,98540.75
2023-03-11T21:35:40.542Z,98535.31
2023-03-11T21:40:43.605Z,98534.59
2023-03-11T21:45:46.935Z,98538.03
2023-03-11T21:50:53.555Z,98542.63
2023-03-11T21:55:56.592Z,98542.63
2023-03-11T22:00:59.891Z,98534.47
2023-03-11T22:06:06.788Z,98534.47
2023-03-11T22:11:12.796Z,98541.53
2023-03-11T22:16:16.406Z,98547.09
2023-03-11T22:21:21.746Z,98550.97
2023-03-11T22:26:24.774Z,98538.75
2023-03-11T22:31:27.742Z,98547.63
2023-03-11T22:36:32.127Z,98549.50
2023-03-11T22:41:35.497Z,98552.38
2023-03-11T22:46:38.435Z,98562.66
2023-03-11T22:51:42.744Z,98564.88
2023-03-11T22:56:45.876Z,98560.44
2023-03-11T23:01:48.825Z,98569.97
2023-03-11T23:06:54.479Z,98564.09
2023-03-11T23:11:57.558Z,98562.31
2023-03-11T23:17:00.474Z,98564.44
2023-03-11T23:22:04.874Z,98572.66
2023-03-11T23:27:07.810Z,98571.88
2023-03-11T23:32:11.009Z,98568.34
2023-03-11T23:37:15.569Z,98577.09
2023-03-11T23:42:25.404Z,98569.97
2023-03-11T23:47:29.867Z,98579.34
2023-03-11T23:52:34.166Z,98587.25
2023-03-11T23:57:37.464Z,98580.78
